Palchem 1 — 9HA2097 — position and weather

sailwx.info

Track history (hours):
 
Tides and Currents Weather Stations Pressure Air Temp Water Temp Dewpoint Dewpoint Depression Visibility Wind Speed Wind Dir Waves Ship Positions

Palchem 1

Last reported at 2017-Feb-02 06:08 UTC. Time now 2017-Apr-28 16:03 UTC.
Position N 37°21' E 025°55'.
Warning: this ship's position is months out of date.

Length 143 m; draft 9.1 m.

Type: Ship. MMSI: 249955000.

Date/timePositionNaut miles runAvg speedWind from/ knotsBaromVisibWave heightAir tempDewpointWater temp
2017-Feb-02 06:08N 37°21' E 025°55'  
2017-Jan-28 16:26N 46°18' E 030°55'1012.0
2017-Jan-28 15:33N 46°28' E 030°55'22 9.4
2017-Jan-28 13:17N 46°35' E 031°25'7 9.7
2017-Jan-28 12:34N 46°35' E 031°35'8 8.1
2017-Jan-28 11:33N 46°36' E 031°47'9 8.7
2017-Jan-28 10:34N 46°42' E 031°56'8 8.4
2017-Jan-28 09:34N 46°50' E 031°56'7 6.6
2017-Jan-28 08:31N 46°56' E 032°01'0 0.0
2017-Jan-28 07:34N 46°56' E 032°01'0 0.0
2017-Jan-28 06:32N 46°56' E 032°01'0 0.0
2017-Jan-28 05:32N 46°56' E 032°01'0 0.0
2017-Jan-28 04:32N 46°56' E 032°01'0 0.0
2017-Jan-28 03:32N 46°56' E 032°01'0 0.0
2017-Jan-28 02:29N 46°56' E 032°01'0 0.0
2017-Jan-28 01:32N 46°56' E 032°01'0 0.0
2017-Jan-28 00:32N 46°56' E 032°01'0 0.0
2017-Jan-27 23:32N 46°56' E 032°01'0 0.0
2017-Jan-27 22:32N 46°56' E 032°01'0 0.0
2017-Jan-27 21:32N 46°56' E 032°01'0 0.0
2017-Jan-27 20:32N 46°56' E 032°01'0 0.0
2017-Jan-27 19:32N 46°56' E 032°01'0 0.0
2017-Jan-27 18:32N 46°56' E 032°01'0 0.0
2017-Jan-27 17:29N 46°56' E 032°01'0 0.0
2017-Jan-27 16:32N 46°56' E 032°01'0 0.0
2017-Jan-27 15:32N 46°56' E 032°01'0 0.0
2017-Jan-27 14:32N 46°56' E 032°01'0 0.0
2017-Jan-27 13:32N 46°56' E 032°01'0 0.0
2017-Jan-27 12:34N 46°56' E 032°01'0 0.0
2017-Jan-27 11:31N 46°56' E 032°01'0 0.0
2017-Jan-27 10:33N 46°56' E 032°01'0 0.0
2017-Jan-27 09:33N 46°56' E 032°01'0 0.0
2017-Jan-27 08:32N 46°56' E 032°01'0 0.0
2017-Jan-27 07:32N 46°56' E 032°01'0 0.0
2017-Jan-27 06:30N 46°56' E 032°01'0 0.0
2017-Jan-27 05:33N 46°56' E 032°01'0 0.0
2017-Jan-27 04:33N 46°56' E 032°01'0 0.0
2017-Jan-27 03:33N 46°56' E 032°01'0 0.0
2017-Jan-27 02:33N 46°56' E 032°01'0 0.0
2017-Jan-27 01:33N 46°56' E 032°01'0 0.0
2017-Jan-27 00:32N 46°56' E 032°01'0 0.0
2017-Jan-26 23:31N 46°56' E 032°01'0 0.0
2017-Jan-26 22:31N 46°56' E 032°01'0 0.0
2017-Jan-26 21:33N 46°56' E 032°01'0 0.0
2017-Jan-26 20:33N 46°56' E 032°01'0 0.0
2017-Jan-26 19:33N 46°56' E 032°01'0 0.0
2017-Jan-26 18:33N 46°56' E 032°01'0 0.0
2017-Jan-26 17:33N 46°56' E 032°01'0 0.0
2017-Jan-26 16:33N 46°56' E 032°01'0 0.0
2017-Jan-26 15:33N 46°56' E 032°01'0 0.0
2017-Jan-26 14:32N 46°56' E 032°01'0 0.0
2017-Jan-26 13:32N 46°56' E 032°01'0 0.0
2017-Jan-26 12:32N 46°56' E 032°01'0 0.0
2017-Jan-26 11:32N 46°56' E 032°01'0 0.0
2017-Jan-26 10:32N 46°56' E 032°01'0 0.0
2017-Jan-26 09:32N 46°56' E 032°01'0 0.0
2017-Jan-26 08:32N 46°56' E 032°01'0 0.0
2017-Jan-26 07:32N 46°56' E 032°01'0 0.0
2017-Jan-26 06:32N 46°56' E 032°01'0 0.0
2017-Jan-26 05:32N 46°56' E 032°01'0 0.0
2017-Jan-26 04:31N 46°56' E 032°01'0 0.0
2017-Jan-26 03:33N 46°56' E 032°01'0 0.0
2017-Jan-26 02:33N 46°56' E 032°01'0 0.0
2017-Jan-26 01:29N 46°56' E 032°01'0 0.0
2017-Jan-26 00:32N 46°56' E 032°01'0 0.0
2017-Jan-25 23:32N 46°56' E 032°01'0 0.0
2017-Jan-25 22:32N 46°56' E 032°01'0 0.0
2017-Jan-25 21:32N 46°56' E 032°01'0 0.0
2017-Jan-25 20:33N 46°56' E 032°01'0 0.0
2017-Jan-25 19:33N 46°56' E 032°01'0 0.0
2017-Jan-25 18:33N 46°56' E 032°01'0 0.0
2017-Jan-25 17:33N 46°56' E 032°01'0 0.0
2017-Jan-25 16:33N 46°56' E 032°01'0 0.0
2017-Jan-25 15:33N 46°56' E 032°01'0 0.0
2017-Jan-25 14:33N 46°56' E 032°01'0 0.0
2017-Jan-25 13:33N 46°56' E 032°01'0 0.0
2017-Jan-25 12:33N 46°56' E 032°01'0 0.0
2017-Jan-25 11:32N 46°56' E 032°01'0 0.0
2017-Jan-25 10:32N 46°56' E 032°01'0 0.0
2017-Jan-25 09:32N 46°56' E 032°01'0 0.0
2017-Jan-25 08:32N 46°56' E 032°01'0 0.0
2017-Jan-25 07:32N 46°56' E 032°01'0 0.0
2017-Jan-25 06:32N 46°56' E 032°01'0 0.0
2017-Jan-25 05:31N 46°56' E 032°01'0 0.0
2017-Jan-25 04:31N 46°56' E 032°01'0 0.0
2017-Jan-25 03:31N 46°56' E 032°01'0 0.0
2017-Jan-25 02:31N 46°56' E 032°01'0 0.0
2017-Jan-25 01:31N 46°56' E 032°01'0 0.0
2017-Jan-25 00:33N 46°56' E 032°01'0 0.2
2017-Jan-24 23:33N 46°56' E 032°01'6 5.8
2017-Jan-24 22:34N 46°51' E 031°57'10 9.9
2017-Jan-24 21:34N 46°41' E 031°56'1010.3
2017-Jan-24 20:33N 46°36' E 031°43'1210.3
2017-Jan-24 19:22N 46°35' E 031°26'1012.4
2017-Jan-24 18:33N 46°35' E 031°11'1010.0
2017-Jan-24 17:33N 46°32' E 030°57'9 9.2
2017-Jan-24 16:33N 46°23' E 030°58'2 1.8
2017-Jan-24 15:19N 46°23' E 031°01'0 0.0
2017-Jan-24 14:33N 46°23' E 031°01'0 0.0
2017-Jan-24 13:33N 46°23' E 031°01'0 0.0
2017-Jan-24 12:31N 46°23' E 031°01'0 0.0
2017-Jan-24 11:08N 46°23' E 031°01'0 0.0
2017-Jan-24 10:25N 46°23' E 031°01'0 0.0
2017-Jan-24 09:33N 46°23' E 031°01'0 0.0
2017-Jan-24 07:31N 46°23' E 031°01'0 0.1
2017-Jan-24 06:29N 46°23' E 031°01'0 0.0
2017-Jan-24 05:30N 46°23' E 031°01'0 0.0
2017-Jan-24 04:23N 46°23' E 031°01'0 0.0
2017-Jan-24 03:28N 46°23' E 031°01'0 0.0
2017-Jan-24 02:30N 46°23' E 031°01'0 0.0
2017-Jan-24 01:28N 46°23' E 031°01'0 0.0
2017-Jan-23 23:22N 46°23' E 031°01'0 0.1
2017-Jan-23 22:33N 46°23' E 031°01'0 0.1
2017-Jan-23 21:31N 46°23' E 031°01'0 0.0
2017-Jan-23 20:30N 46°23' E 031°01'0 0.0
2017-Jan-23 16:29N 46°23' E 031°01'  
Track history (hours):
 
Tides and Currents Weather Stations Pressure Air Temp Water Temp Dewpoint Dewpoint Depression Visibility Wind Speed Wind Dir Waves Ship Positions

Palchem 1

Last reported at 2017-Feb-02 06:08 UTC. Time now 2017-Apr-28 16:03 UTC.
Position N 37°21' E 025°55'.
Warning: this ship's position is months out of date.

Length 143 m; draft 9.1 m.

Type: Ship. MMSI: 249955000.

Date/timePositionNaut miles runAvg speedWind from/ knotsBaromVisibWave heightAir tempDewpointWater temp
2017-Feb-02 06:08N 37°21' E 025°55'  
2017-Jan-28 16:26N 46°18' E 030°55'1012.0
2017-Jan-28 15:33N 46°28' E 030°55'22 9.4
2017-Jan-28 13:17N 46°35' E 031°25'7 9.7
2017-Jan-28 12:34N 46°35' E 031°35'8 8.1
2017-Jan-28 11:33N 46°36' E 031°47'9 8.7
2017-Jan-28 10:34N 46°42' E 031°56'8 8.4
2017-Jan-28 09:34N 46°50' E 031°56'7 6.6
2017-Jan-28 08:31N 46°56' E 032°01'0 0.0
2017-Jan-28 07:34N 46°56' E 032°01'0 0.0
2017-Jan-28 06:32N 46°56' E 032°01'0 0.0
2017-Jan-28 05:32N 46°56' E 032°01'0 0.0
2017-Jan-28 04:32N 46°56' E 032°01'0 0.0
2017-Jan-28 03:32N 46°56' E 032°01'0 0.0
2017-Jan-28 02:29N 46°56' E 032°01'0 0.0
2017-Jan-28 01:32N 46°56' E 032°01'0 0.0
2017-Jan-28 00:32N 46°56' E 032°01'0 0.0
2017-Jan-27 23:32N 46°56' E 032°01'0 0.0
2017-Jan-27 22:32N 46°56' E 032°01'0 0.0
2017-Jan-27 21:32N 46°56' E 032°01'0 0.0
2017-Jan-27 20:32N 46°56' E 032°01'0 0.0
2017-Jan-27 19:32N 46°56' E 032°01'0 0.0
2017-Jan-27 18:32N 46°56' E 032°01'0 0.0
2017-Jan-27 17:29N 46°56' E 032°01'0 0.0
2017-Jan-27 16:32N 46°56' E 032°01'0 0.0
2017-Jan-27 15:32N 46°56' E 032°01'0 0.0
2017-Jan-27 14:32N 46°56' E 032°01'0 0.0
2017-Jan-27 13:32N 46°56' E 032°01'0 0.0
2017-Jan-27 12:34N 46°56' E 032°01'0 0.0
2017-Jan-27 11:31N 46°56' E 032°01'0 0.0
2017-Jan-27 10:33N 46°56' E 032°01'0 0.0
2017-Jan-27 09:33N 46°56' E 032°01'0 0.0
2017-Jan-27 08:32N 46°56' E 032°01'0 0.0
2017-Jan-27 07:32N 46°56' E 032°01'0 0.0
2017-Jan-27 06:30N 46°56' E 032°01'0 0.0
2017-Jan-27 05:33N 46°56' E 032°01'0 0.0
2017-Jan-27 04:33N 46°56' E 032°01'0 0.0
2017-Jan-27 03:33N 46°56' E 032°01'0 0.0
2017-Jan-27 02:33N 46°56' E 032°01'0 0.0
2017-Jan-27 01:33N 46°56' E 032°01'0 0.0
2017-Jan-27 00:32N 46°56' E 032°01'0 0.0
2017-Jan-26 23:31N 46°56' E 032°01'0 0.0
2017-Jan-26 22:31N 46°56' E 032°01'0 0.0
2017-Jan-26 21:33N 46°56' E 032°01'0 0.0
2017-Jan-26 20:33N 46°56' E 032°01'0 0.0
2017-Jan-26 19:33N 46°56' E 032°01'0 0.0
2017-Jan-26 18:33N 46°56' E 032°01'0 0.0
2017-Jan-26 17:33N 46°56' E 032°01'0 0.0
2017-Jan-26 16:33N 46°56' E 032°01'0 0.0
2017-Jan-26 15:33N 46°56' E 032°01'0 0.0
2017-Jan-26 14:32N 46°56' E 032°01'0 0.0
2017-Jan-26 13:32N 46°56' E 032°01'0 0.0
2017-Jan-26 12:32N 46°56' E 032°01'0 0.0
2017-Jan-26 11:32N 46°56' E 032°01'0 0.0
2017-Jan-26 10:32N 46°56' E 032°01'0 0.0
2017-Jan-26 09:32N 46°56' E 032°01'0 0.0
2017-Jan-26 08:32N 46°56' E 032°01'0 0.0
2017-Jan-26 07:32N 46°56' E 032°01'0 0.0
2017-Jan-26 06:32N 46°56' E 032°01'0 0.0
2017-Jan-26 05:32N 46°56' E 032°01'0 0.0
2017-Jan-26 04:31N 46°56' E 032°01'0 0.0
2017-Jan-26 03:33N 46°56' E 032°01'0 0.0
2017-Jan-26 02:33N 46°56' E 032°01'0 0.0
2017-Jan-26 01:29N 46°56' E 032°01'0 0.0
2017-Jan-26 00:32N 46°56' E 032°01'0 0.0
2017-Jan-25 23:32N 46°56' E 032°01'0 0.0
2017-Jan-25 22:32N 46°56' E 032°01'0 0.0
2017-Jan-25 21:32N 46°56' E 032°01'0 0.0
2017-Jan-25 20:33N 46°56' E 032°01'0 0.0
2017-Jan-25 19:33N 46°56' E 032°01'0 0.0
2017-Jan-25 18:33N 46°56' E 032°01'0 0.0
2017-Jan-25 17:33N 46°56' E 032°01'0 0.0
2017-Jan-25 16:33N 46°56' E 032°01'0 0.0
2017-Jan-25 15:33N 46°56' E 032°01'0 0.0
2017-Jan-25 14:33N 46°56' E 032°01'0 0.0
2017-Jan-25 13:33N 46°56' E 032°01'0 0.0
2017-Jan-25 12:33N 46°56' E 032°01'0 0.0
2017-Jan-25 11:32N 46°56' E 032°01'0 0.0
2017-Jan-25 10:32N 46°56' E 032°01'0 0.0
2017-Jan-25 09:32N 46°56' E 032°01'0 0.0
2017-Jan-25 08:32N 46°56' E 032°01'0 0.0
2017-Jan-25 07:32N 46°56' E 032°01'0 0.0
2017-Jan-25 06:32N 46°56' E 032°01'0 0.0
2017-Jan-25 05:31N 46°56' E 032°01'0 0.0
2017-Jan-25 04:31N 46°56' E 032°01'0 0.0
2017-Jan-25 03:31N 46°56' E 032°01'0 0.0
2017-Jan-25 02:31N 46°56' E 032°01'0 0.0
2017-Jan-25 01:31N 46°56' E 032°01'0 0.0
2017-Jan-25 00:33N 46°56' E 032°01'0 0.2
2017-Jan-24 23:33N 46°56' E 032°01'6 5.8
2017-Jan-24 22:34N 46°51' E 031°57'10 9.9
2017-Jan-24 21:34N 46°41' E 031°56'1010.3
2017-Jan-24 20:33N 46°36' E 031°43'1210.3
2017-Jan-24 19:22N 46°35' E 031°26'1012.4
2017-Jan-24 18:33N 46°35' E 031°11'1010.0
2017-Jan-24 17:33N 46°32' E 030°57'9 9.2
2017-Jan-24 16:33N 46°23' E 030°58'2 1.8
2017-Jan-24 15:19N 46°23' E 031°01'0 0.0
2017-Jan-24 14:33N 46°23' E 031°01'0 0.0
2017-Jan-24 13:33N 46°23' E 031°01'0 0.0
2017-Jan-24 12:31N 46°23' E 031°01'0 0.0
2017-Jan-24 11:08N 46°23' E 031°01'0 0.0
2017-Jan-24 10:25N 46°23' E 031°01'0 0.0
2017-Jan-24 09:33N 46°23' E 031°01'0 0.0
2017-Jan-24 07:31N 46°23' E 031°01'0 0.1
2017-Jan-24 06:29N 46°23' E 031°01'0 0.0
2017-Jan-24 05:30N 46°23' E 031°01'0 0.0
2017-Jan-24 04:23N 46°23' E 031°01'0 0.0
2017-Jan-24 03:28N 46°23' E 031°01'0 0.0
2017-Jan-24 02:30N 46°23' E 031°01'0 0.0
2017-Jan-24 01:28N 46°23' E 031°01'0 0.0
2017-Jan-23 23:22N 46°23' E 031°01'0 0.1
2017-Jan-23 22:33N 46°23' E 031°01'0 0.1
2017-Jan-23 21:31N 46°23' E 031°01'0 0.0
2017-Jan-23 20:30N 46°23' E 031°01'0 0.0
2017-Jan-23 16:29N 46°23' E 031°01'  

Dump ship's entire track history